sensor_id;sensor_type;location;lat;lon;timestamp;P1;durP1;ratioP1;P2;durP2;ratioP2
21681;SDS011;11002;48.256;10.084;2022-08-24T00:00:30;0.82;;;0.70;;
21681;SDS011;11002;48.256;10.084;2022-08-24T00:02:59;0.55;;;0.55;;
21681;SDS011;11002;48.256;10.084;2022-08-24T00:05:26;0.90;;;0.73;;
21681;SDS011;11002;48.256;10.084;2022-08-24T00:07:54;0.60;;;0.60;;
21681;SDS011;11002;48.256;10.084;2022-08-24T00:10:21;1.20;;;0.70;;
21681;SDS011;11002;48.256;10.084;2022-08-24T00:12:50;0.70;;;0.70;;
21681;SDS011;11002;48.256;10.084;2022-08-24T00:15:18;1.25;;;0.90;;
21681;SDS011;11002;48.256;10.084;2022-08-24T00:17:47;0.73;;;0.73;;
21681;SDS011;11002;48.256;10.084;2022-08-24T00:20:14;0.63;;;0.63;;
21681;SDS011;11002;48.256;10.084;2022-08-24T00:22:42;0.80;;;0.80;;
21681;SDS011;11002;48.256;10.084;2022-08-24T00:25:10;0.80;;;0.80;;
21681;SDS011;11002;48.256;10.084;2022-08-24T00:27:39;0.80;;;0.80;;
21681;SDS011;11002;48.256;10.084;2022-08-24T00:30:08;0.70;;;0.70;;
21681;SDS011;11002;48.256;10.084;2022-08-24T00:32:40;0.77;;;0.77;;
21681;SDS011;11002;48.256;10.084;2022-08-24T00:35:09;0.68;;;0.60;;
21681;SDS011;11002;48.256;10.084;2022-08-24T00:37:37;0.88;;;0.88;;
21681;SDS011;11002;48.256;10.084;2022-08-24T00:40:07;1.70;;;0.90;;
21681;SDS011;11002;48.256;10.084;2022-08-24T00:42:37;0.70;;;0.70;;
21681;SDS011;11002;48.256;10.084;2022-08-24T00:45:07;0.70;;;0.70;;
21681;SDS011;11002;48.256;10.084;2022-08-24T00:47:38;0.68;;;0.68;;
21681;SDS011;11002;48.256;10.084;2022-08-24T00:50:11;0.93;;;0.93;;
21681;SDS011;11002;48.256;10.084;2022-08-24T00:52:44;0.70;;;0.70;;
21681;SDS011;11002;48.256;10.084;2022-08-24T00:55:16;0.80;;;0.80;;
21681;SDS011;11002;48.256;10.084;2022-08-24T00:57:47;0.88;;;0.88;;
21681;SDS011;11002;48.256;10.084;2022-08-24T01:00:19;1.17;;;1.10;;
21681;SDS011;11002;48.256;10.084;2022-08-24T01:02:50;1.10;;;1.00;;
21681;SDS011;11002;48.256;10.084;2022-08-24T01:05:24;0.80;;;0.80;;
21681;SDS011;11002;48.256;10.084;2022-08-24T01:07:51;1.15;;;1.08;;
21681;SDS011;11002;48.256;10.084;2022-08-24T01:10:20;0.88;;;0.88;;
21681;SDS011;11002;48.256;10.084;2022-08-24T01:12:51;0.77;;;0.77;;
21681;SDS011;11002;48.256;10.084;2022-08-24T01:15:22;0.65;;;0.60;;
21681;SDS011;11002;48.256;10.084;2022-08-24T01:17:50;1.05;;;0.70;;
21681;SDS011;11002;48.256;10.084;2022-08-24T01:20:37;0.90;;;0.90;;
21681;SDS011;11002;48.256;10.084;2022-08-24T01:23:06;0.77;;;0.77;;
21681;SDS011;11002;48.256;10.084;2022-08-24T01:25:42;0.82;;;0.82;;
21681;SDS011;11002;48.256;10.084;2022-08-24T01:28:10;0.70;;;0.70;;
21681;SDS011;11002;48.256;10.084;2022-08-24T01:30:41;0.95;;;0.95;;
21681;SDS011;11002;48.256;10.084;2022-08-24T01:33:09;0.90;;;0.90;;
21681;SDS011;11002;48.256;10.084;2022-08-24T01:35:47;0.68;;;0.68;;
21681;SDS011;11002;48.256;10.084;2022-08-24T01:38:14;1.75;;;0.88;;
21681;SDS011;11002;48.256;10.084;2022-08-24T01:40:45;0.70;;;0.70;;
21681;SDS011;11002;48.256;10.084;2022-08-24T01:43:16;0.93;;;0.93;;
21681;SDS011;11002;48.256;10.084;2022-08-24T01:45:43;0.80;;;0.80;;
21681;SDS011;11002;48.256;10.084;2022-08-24T01:48:11;0.90;;;0.90;;
21681;SDS011;11002;48.256;10.084;2022-08-24T01:50:40;0.80;;;0.80;;
21681;SDS011;11002;48.256;10.084;2022-08-24T01:53:08;0.73;;;0.73;;
21681;SDS011;11002;48.256;10.084;2022-08-24T01:55:36;0.80;;;0.80;;
21681;SDS011;11002;48.256;10.084;2022-08-24T01:58:05;0.77;;;0.77;;
21681;SDS011;11002;48.256;10.084;2022-08-24T02:00:32;0.70;;;0.70;;
21681;SDS011;11002;48.256;10.084;2022-08-24T02:03:02;0.73;;;0.73;;
21681;SDS011;11002;48.256;10.084;2022-08-24T02:05:29;1.00;;;1.00;;
21681;SDS011;11002;48.256;10.084;2022-08-24T02:07:57;1.02;;;0.93;;
21681;SDS011;11002;48.256;10.084;2022-08-24T02:10:25;0.90;;;0.90;;
21681;SDS011;11002;48.256;10.084;2022-08-24T02:12:53;1.58;;;0.90;;
21681;SDS011;11002;48.256;10.084;2022-08-24T02:15:29;0.77;;;0.77;;
21681;SDS011;11002;48.256;10.084;2022-08-24T02:17:58;0.98;;;0.90;;
21681;SDS011;11002;48.256;10.084;2022-08-24T02:20:26;1.10;;;0.82;;
21681;SDS011;11002;48.256;10.084;2022-08-24T02:22:54;0.90;;;0.90;;
21681;SDS011;11002;48.256;10.084;2022-08-24T02:25:23;0.80;;;0.80;;
21681;SDS011;11002;48.256;10.084;2022-08-24T02:27:55;1.00;;;0.90;;
21681;SDS011;11002;48.256;10.084;2022-08-24T02:30:22;1.00;;;1.00;;
21681;SDS011;11002;48.256;10.084;2022-08-24T02:32:52;0.85;;;0.85;;
21681;SDS011;11002;48.256;10.084;2022-08-24T02:35:19;0.85;;;0.85;;
21681;SDS011;11002;48.256;10.084;2022-08-24T02:37:47;1.23;;;0.88;;
21681;SDS011;11002;48.256;10.084;2022-08-24T02:40:16;0.80;;;0.80;;
21681;SDS011;11002;48.256;10.084;2022-08-24T02:42:44;1.88;;;0.90;;
21681;SDS011;11002;48.256;10.084;2022-08-24T02:45:12;1.55;;;1.17;;
21681;SDS011;11002;48.256;10.084;2022-08-24T02:47:40;0.80;;;0.80;;
21681;SDS011;11002;48.256;10.084;2022-08-24T02:50:10;0.90;;;0.90;;
21681;SDS011;11002;48.256;10.084;2022-08-24T02:52:40;0.80;;;0.80;;
21681;SDS011;11002;48.256;10.084;2022-08-24T02:55:09;0.95;;;0.95;;
21681;SDS011;11002;48.256;10.084;2022-08-24T02:57:39;0.82;;;0.82;;
21681;SDS011;11002;48.256;10.084;2022-08-24T03:00:08;1.70;;;0.75;;
21681;SDS011;11002;48.256;10.084;2022-08-24T03:02:45;0.80;;;0.80;;
21681;SDS011;11002;48.256;10.084;2022-08-24T03:05:15;1.83;;;1.10;;
21681;SDS011;11002;48.256;10.084;2022-08-24T03:07:42;0.90;;;0.90;;
21681;SDS011;11002;48.256;10.084;2022-08-24T03:10:10;1.02;;;1.00;;
21681;SDS011;11002;48.256;10.084;2022-08-24T03:12:38;0.80;;;0.80;;
21681;SDS011;11002;48.256;10.084;2022-08-24T03:15:07;0.80;;;0.80;;
21681;SDS011;11002;48.256;10.084;2022-08-24T03:17:36;0.70;;;0.70;;
21681;SDS011;11002;48.256;10.084;2022-08-24T03:20:05;0.80;;;0.80;;
21681;SDS011;11002;48.256;10.084;2022-08-24T03:22:37;0.82;;;0.77;;
21681;SDS011;11002;48.256;10.084;2022-08-24T03:25:05;0.90;;;0.90;;
21681;SDS011;11002;48.256;10.084;2022-08-24T03:27:34;1.00;;;0.90;;
21681;SDS011;11002;48.256;10.084;2022-08-24T03:30:02;0.90;;;0.90;;
21681;SDS011;11002;48.256;10.084;2022-08-24T03:32:31;0.90;;;0.90;;
21681;SDS011;11002;48.256;10.084;2022-08-24T03:34:59;1.08;;;1.00;;
21681;SDS011;11002;48.256;10.084;2022-08-24T03:37:29;0.80;;;0.80;;
21681;SDS011;11002;48.256;10.084;2022-08-24T03:39:58;0.85;;;0.85;;
21681;SDS011;11002;48.256;10.084;2022-08-24T03:42:26;0.90;;;0.90;;
21681;SDS011;11002;48.256;10.084;2022-08-24T03:44:53;1.00;;;0.93;;
21681;SDS011;11002;48.256;10.084;2022-08-24T03:47:21;0.88;;;0.88;;
21681;SDS011;11002;48.256;10.084;2022-08-24T03:49:50;0.82;;;0.82;;
21681;SDS011;11002;48.256;10.084;2022-08-24T03:52:18;1.02;;;1.02;;
21681;SDS011;11002;48.256;10.084;2022-08-24T03:54:46;1.00;;;1.00;;
21681;SDS011;11002;48.256;10.084;2022-08-24T03:57:15;0.80;;;0.80;;
21681;SDS011;11002;48.256;10.084;2022-08-24T03:59:43;1.05;;;1.05;;
21681;SDS011;11002;48.256;10.084;2022-08-24T04:02:10;0.82;;;0.82;;
21681;SDS011;11002;48.256;10.084;2022-08-24T04:04:38;1.27;;;1.23;;
21681;SDS011;11002;48.256;10.084;2022-08-24T04:07:05;1.10;;;1.02;;
21681;SDS011;11002;48.256;10.084;2022-08-24T04:09:33;0.90;;;0.90;;
21681;SDS011;11002;48.256;10.084;2022-08-24T04:12:00;0.90;;;0.90;;
21681;SDS011;11002;48.256;10.084;2022-08-24T04:14:30;1.60;;;1.00;;
21681;SDS011;11002;48.256;10.084;2022-08-24T04:17:03;0.80;;;0.80;;
21681;SDS011;11002;48.256;10.084;2022-08-24T04:19:36;0.90;;;0.90;;
21681;SDS011;11002;48.256;10.084;2022-08-24T04:22:22;0.95;;;0.93;;
21681;SDS011;11002;48.256;10.084;2022-08-24T04:24:50;0.88;;;0.80;;
21681;SDS011;11002;48.256;10.084;2022-08-24T04:27:18;1.10;;;1.00;;
21681;SDS011;11002;48.256;10.084;2022-08-24T04:29:47;0.90;;;0.90;;
21681;SDS011;11002;48.256;10.084;2022-08-24T04:32:15;1.20;;;1.10;;
21681;SDS011;11002;48.256;10.084;2022-08-24T04:34:43;1.05;;;0.90;;
21681;SDS011;11002;48.256;10.084;2022-08-24T04:37:13;1.10;;;1.10;;
21681;SDS011;11002;48.256;10.084;2022-08-24T04:39:42;1.10;;;1.05;;
21681;SDS011;11002;48.256;10.084;2022-08-24T04:42:13;1.05;;;0.98;;
21681;SDS011;11002;48.256;10.084;2022-08-24T04:44:40;0.80;;;0.80;;
21681;SDS011;11002;48.256;10.084;2022-08-24T04:47:09;1.10;;;1.00;;
21681;SDS011;11002;48.256;10.084;2022-08-24T04:49:37;1.13;;;1.02;;
21681;SDS011;11002;48.256;10.084;2022-08-24T04:52:05;1.13;;;1.02;;
21681;SDS011;11002;48.256;10.084;2022-08-24T04:54:34;1.13;;;1.02;;
21681;SDS011;11002;48.256;10.084;2022-08-24T04:57:08;0.80;;;0.80;;
21681;SDS011;11002;48.256;10.084;2022-08-24T04:59:38;1.15;;;1.05;;
21681;SDS011;11002;48.256;10.084;2022-08-24T05:02:06;0.90;;;0.90;;
21681;SDS011;11002;48.256;10.084;2022-08-24T05:04:35;1.10;;;1.00;;
21681;SDS011;11002;48.256;10.084;2022-08-24T05:07:03;0.80;;;0.80;;
21681;SDS011;11002;48.256;10.084;2022-08-24T05:09:31;0.80;;;0.80;;
21681;SDS011;11002;48.256;10.084;2022-08-24T05:11:59;0.90;;;0.90;;
21681;SDS011;11002;48.256;10.084;2022-08-24T05:14:31;0.77;;;0.77;;
21681;SDS011;11002;48.256;10.084;2022-08-24T05:16:59;0.90;;;0.90;;
21681;SDS011;11002;48.256;10.084;2022-08-24T05:19:27;1.02;;;1.00;;
21681;SDS011;11002;48.256;10.084;2022-08-24T05:21:56;1.10;;;1.00;;
21681;SDS011;11002;48.256;10.084;2022-08-24T05:24:24;0.90;;;0.90;;
21681;SDS011;11002;48.256;10.084;2022-08-24T05:26:51;1.30;;;1.20;;
21681;SDS011;11002;48.256;10.084;2022-08-24T05:29:20;1.20;;;1.10;;
21681;SDS011;11002;48.256;10.084;2022-08-24T05:31:49;0.93;;;0.93;;
21681;SDS011;11002;48.256;10.084;2022-08-24T05:34:16;0.80;;;0.80;;
21681;SDS011;11002;48.256;10.084;2022-08-24T05:36:44;1.20;;;1.10;;
21681;SDS011;11002;48.256;10.084;2022-08-24T05:39:24;0.95;;;0.95;;
21681;SDS011;11002;48.256;10.084;2022-08-24T05:41:54;0.90;;;0.90;;
21681;SDS011;11002;48.256;10.084;2022-08-24T05:44:26;1.30;;;1.10;;
21681;SDS011;11002;48.256;10.084;2022-08-24T05:46:56;1.00;;;1.00;;
21681;SDS011;11002;48.256;10.084;2022-08-24T05:49:26;0.90;;;0.90;;
21681;SDS011;11002;48.256;10.084;2022-08-24T05:51:53;1.15;;;1.05;;
21681;SDS011;11002;48.256;10.084;2022-08-24T05:54:21;1.10;;;1.05;;
21681;SDS011;11002;48.256;10.084;2022-08-24T05:56:58;1.10;;;1.10;;
21681;SDS011;11002;48.256;10.084;2022-08-24T05:59:32;1.00;;;1.00;;
21681;SDS011;11002;48.256;10.084;2022-08-24T06:02:06;1.02;;;0.93;;
21681;SDS011;11002;48.256;10.084;2022-08-24T06:04:34;1.20;;;1.10;;
21681;SDS011;11002;48.256;10.084;2022-08-24T06:07:04;0.88;;;0.88;;
21681;SDS011;11002;48.256;10.084;2022-08-24T06:09:39;1.00;;;1.00;;
21681;SDS011;11002;48.256;10.084;2022-08-24T06:12:08;0.90;;;0.90;;
21681;SDS011;11002;48.256;10.084;2022-08-24T06:14:36;1.00;;;1.00;;
21681;SDS011;11002;48.256;10.084;2022-08-24T06:17:06;1.45;;;1.30;;
21681;SDS011;11002;48.256;10.084;2022-08-24T06:19:36;1.00;;;1.00;;
21681;SDS011;11002;48.256;10.084;2022-08-24T06:22:03;0.90;;;0.90;;
21681;SDS011;11002;48.256;10.084;2022-08-24T06:24:34;1.00;;;1.00;;
21681;SDS011;11002;48.256;10.084;2022-08-24T06:27:21;0.82;;;0.82;;
21681;SDS011;11002;48.256;10.084;2022-08-24T06:29:55;0.98;;;0.98;;
21681;SDS011;11002;48.256;10.084;2022-08-24T06:32:53;0.90;;;0.90;;
21681;SDS011;11002;48.256;10.084;2022-08-24T06:35:30;0.90;;;0.90;;
21681;SDS011;11002;48.256;10.084;2022-08-24T06:37:58;0.90;;;0.90;;
21681;SDS011;11002;48.256;10.084;2022-08-24T06:40:26;2.35;;;1.17;;
21681;SDS011;11002;48.256;10.084;2022-08-24T06:42:55;2.22;;;1.15;;
21681;SDS011;11002;48.256;10.084;2022-08-24T06:45:50;3.47;;;1.40;;
21681;SDS011;11002;48.256;10.084;2022-08-24T06:48:22;2.30;;;1.10;;
21681;SDS011;11002;48.256;10.084;2022-08-24T06:50:50;4.97;;;1.58;;
21681;SDS011;11002;48.256;10.084;2022-08-24T06:53:19;1.38;;;1.27;;
21681;SDS011;11002;48.256;10.084;2022-08-24T06:55:48;1.85;;;1.63;;
21681;SDS011;11002;48.256;10.084;2022-08-24T06:58:18;1.30;;;1.23;;
21681;SDS011;11002;48.256;10.084;2022-08-24T07:00:46;2.42;;;1.20;;
21681;SDS011;11002;48.256;10.084;2022-08-24T07:03:15;1.42;;;1.20;;
21681;SDS011;11002;48.256;10.084;2022-08-24T07:05:52;4.40;;;1.20;;
21681;SDS011;11002;48.256;10.084;2022-08-24T07:08:50;2.45;;;1.30;;
21681;SDS011;11002;48.256;10.084;2022-08-24T07:11:18;1.33;;;1.23;;
21681;SDS011;11002;48.256;10.084;2022-08-24T07:13:48;1.23;;;1.13;;
21681;SDS011;11002;48.256;10.084;2022-08-24T07:16:18;1.30;;;1.20;;
21681;SDS011;11002;48.256;10.084;2022-08-24T07:18:50;1.73;;;1.27;;
21681;SDS011;11002;48.256;10.084;2022-08-24T07:21:19;0.95;;;0.95;;
21681;SDS011;11002;48.256;10.084;2022-08-24T07:23:52;1.00;;;1.00;;
21681;SDS011;11002;48.256;10.084;2022-08-24T07:26:21;1.23;;;1.10;;
21681;SDS011;11002;48.256;10.084;2022-08-24T07:28:54;1.65;;;1.10;;
21681;SDS011;11002;48.256;10.084;2022-08-24T07:31:31;1.40;;;1.30;;
21681;SDS011;11002;48.256;10.084;2022-08-24T07:34:08;1.10;;;1.00;;
21681;SDS011;11002;48.256;10.084;2022-08-24T07:36:38;1.65;;;1.27;;
21681;SDS011;11002;48.256;10.084;2022-08-24T07:39:06;2.85;;;1.35;;
21681;SDS011;11002;48.256;10.084;2022-08-24T07:41:36;2.25;;;1.65;;
21681;SDS011;11002;48.256;10.084;2022-08-24T07:44:07;2.67;;;1.50;;
21681;SDS011;11002;48.256;10.084;2022-08-24T07:46:34;3.42;;;1.95;;
21681;SDS011;11002;48.256;10.084;2022-08-24T07:49:04;2.20;;;1.63;;
21681;SDS011;11002;48.256;10.084;2022-08-24T07:51:33;1.92;;;1.70;;
21681;SDS011;11002;48.256;10.084;2022-08-24T07:54:01;3.15;;;1.90;;
21681;SDS011;11002;48.256;10.084;2022-08-24T07:56:35;2.13;;;1.83;;
21681;SDS011;11002;48.256;10.084;2022-08-24T07:59:03;2.30;;;1.90;;
21681;SDS011;11002;48.256;10.084;2022-08-24T08:01:32;2.15;;;1.65;;
21681;SDS011;11002;48.256;10.084;2022-08-24T08:03:59;3.17;;;2.30;;
21681;SDS011;11002;48.256;10.084;2022-08-24T08:06:27;10.05;;;2.45;;
21681;SDS011;11002;48.256;10.084;2022-08-24T08:08:59;2.20;;;2.00;;
21681;SDS011;11002;48.256;10.084;2022-08-24T08:11:28;8.43;;;2.17;;
21681;SDS011;11002;48.256;10.084;2022-08-24T08:13:56;4.45;;;2.20;;
21681;SDS011;11002;48.256;10.084;2022-08-24T08:16:23;1.90;;;1.60;;
21681;SDS011;11002;48.256;10.084;2022-08-24T08:18:53;3.30;;;1.83;;
21681;SDS011;11002;48.256;10.084;2022-08-24T08:21:21;2.10;;;1.60;;
21681;SDS011;11002;48.256;10.084;2022-08-24T08:26:47;4.03;;;1.83;;
21681;SDS011;11002;48.256;10.084;2022-08-24T08:29:26;1.65;;;1.55;;
21681;SDS011;11002;48.256;10.084;2022-08-24T08:31:56;1.90;;;1.80;;
21681;SDS011;11002;48.256;10.084;2022-08-24T08:34:26;1.73;;;1.60;;
21681;SDS011;11002;48.256;10.084;2022-08-24T08:36:55;1.70;;;1.60;;
21681;SDS011;11002;48.256;10.084;2022-08-24T08:39:25;1.98;;;1.65;;
21681;SDS011;11002;48.256;10.084;2022-08-24T08:42:09;1.60;;;1.50;;
21681;SDS011;11002;48.256;10.084;2022-08-24T08:48:21;1.67;;;1.30;;
21681;SDS011;11002;48.256;10.084;2022-08-24T08:57:11;2.53;;;1.55;;
21681;SDS011;11002;48.256;10.084;2022-08-24T08:59:50;1.55;;;1.45;;
21681;SDS011;11002;48.256;10.084;2022-08-24T09:02:37;2.90;;;1.30;;
21681;SDS011;11002;48.256;10.084;2022-08-24T09:08:24;1.75;;;1.45;;
21681;SDS011;11002;48.256;10.084;2022-08-24T09:11:00;2.88;;;1.50;;
21681;SDS011;11002;48.256;10.084;2022-08-24T09:13:41;2.33;;;1.40;;
21681;SDS011;11002;48.256;10.084;2022-08-24T09:16:35;3.55;;;1.77;;
21681;SDS011;11002;48.256;10.084;2022-08-24T09:19:22;1.52;;;1.40;;
21681;SDS011;11002;48.256;10.084;2022-08-24T09:22:09;1.75;;;1.50;;
21681;SDS011;11002;48.256;10.084;2022-08-24T09:24:57;1.90;;;1.60;;
21681;SDS011;11002;48.256;10.084;2022-08-24T09:27:45;1.70;;;1.40;;
21681;SDS011;11002;48.256;10.084;2022-08-24T09:30:25;1.92;;;1.50;;
21681;SDS011;11002;48.256;10.084;2022-08-24T09:32:59;1.70;;;1.60;;
21681;SDS011;11002;48.256;10.084;2022-08-24T09:35:41;1.55;;;1.45;;
21681;SDS011;11002;48.256;10.084;2022-08-24T09:38:46;2.45;;;1.55;;
21681;SDS011;11002;48.256;10.084;2022-08-24T09:44:47;1.80;;;1.37;;
21681;SDS011;11002;48.256;10.084;2022-08-24T09:47:55;2.17;;;1.42;;
21681;SDS011;11002;48.256;10.084;2022-08-24T09:57:15;1.20;;;1.10;;
21681;SDS011;11002;48.256;10.084;2022-08-24T09:59:56;1.30;;;1.20;;
21681;SDS011;11002;48.256;10.084;2022-08-24T10:06:07;1.50;;;1.40;;
21681;SDS011;11002;48.256;10.084;2022-08-24T10:08:54;2.13;;;1.55;;
21681;SDS011;11002;48.256;10.084;2022-08-24T10:11:39;1.30;;;1.20;;
21681;SDS011;11002;48.256;10.084;2022-08-24T10:14:18;4.63;;;1.65;;
21681;SDS011;11002;48.256;10.084;2022-08-24T10:17:06;1.23;;;1.10;;
21681;SDS011;11002;48.256;10.084;2022-08-24T10:19:45;1.35;;;1.25;;
21681;SDS011;11002;48.256;10.084;2022-08-24T10:22:23;2.15;;;1.40;;
21681;SDS011;11002;48.256;10.084;2022-08-24T10:25:02;1.75;;;1.27;;
21681;SDS011;11002;48.256;10.084;2022-08-24T10:27:45;1.63;;;1.52;;
21681;SDS011;11002;48.256;10.084;2022-08-24T10:30:26;1.35;;;1.25;;
21681;SDS011;11002;48.256;10.084;2022-08-24T10:33:18;1.23;;;1.13;;
21681;SDS011;11002;48.256;10.084;2022-08-24T10:35:54;1.50;;;1.30;;
21681;SDS011;11002;48.256;10.084;2022-08-24T10:38:33;1.50;;;1.35;;
21681;SDS011;11002;48.256;10.084;2022-08-24T10:47:25;1.40;;;1.30;;
21681;SDS011;11002;48.256;10.084;2022-08-24T10:55:40;1.88;;;1.30;;
21681;SDS011;11002;48.256;10.084;2022-08-24T11:01:27;1.40;;;1.20;;
21681;SDS011;11002;48.256;10.084;2022-08-24T11:03:58;1.87;;;1.10;;
21681;SDS011;11002;48.256;10.084;2022-08-24T11:06:31;1.33;;;1.00;;
21681;SDS011;11002;48.256;10.084;2022-08-24T11:09:02;1.42;;;1.33;;
21681;SDS011;11002;48.256;10.084;2022-08-24T11:11:33;1.40;;;1.30;;
21681;SDS011;11002;48.256;10.084;2022-08-24T11:14:03;1.52;;;1.30;;
21681;SDS011;11002;48.256;10.084;2022-08-24T11:16:34;1.33;;;1.23;;
21681;SDS011;11002;48.256;10.084;2022-08-24T11:19:06;1.30;;;1.20;;
21681;SDS011;11002;48.256;10.084;2022-08-24T11:21:39;1.48;;;1.27;;
21681;SDS011;11002;48.256;10.084;2022-08-24T11:24:24;1.00;;;1.00;;
21681;SDS011;11002;48.256;10.084;2022-08-24T11:27:05;1.30;;;1.20;;
21681;SDS011;11002;48.256;10.084;2022-08-24T11:29:53;1.88;;;1.40;;
21681;SDS011;11002;48.256;10.084;2022-08-24T11:32:43;1.20;;;1.10;;
21681;SDS011;11002;48.256;10.084;2022-08-24T11:35:17;0.90;;;0.90;;
21681;SDS011;11002;48.256;10.084;2022-08-24T11:37:49;1.23;;;1.10;;
21681;SDS011;11002;48.256;10.084;2022-08-24T11:40:18;1.20;;;1.10;;
21681;SDS011;11002;48.256;10.084;2022-08-24T11:42:54;1.00;;;1.00;;
21681;SDS011;11002;48.256;10.084;2022-08-24T11:45:33;1.13;;;1.10;;
21681;SDS011;11002;48.256;10.084;2022-08-24T11:48:09;1.13;;;1.02;;
21681;SDS011;11002;48.256;10.084;2022-08-24T11:50:47;1.20;;;1.00;;
21681;SDS011;11002;48.256;10.084;2022-08-24T11:53:26;1.30;;;1.08;;
21681;SDS011;11002;48.256;10.084;2022-08-24T11:56:03;1.23;;;1.20;;
21681;SDS011;11002;48.256;10.084;2022-08-24T11:58:41;1.13;;;1.08;;
21681;SDS011;11002;48.256;10.084;2022-08-24T12:01:16;1.02;;;1.00;;
21681;SDS011;11002;48.256;10.084;2022-08-24T12:03:53;1.27;;;1.17;;
21681;SDS011;11002;48.256;10.084;2022-08-24T12:06:47;1.20;;;1.13;;
21681;SDS011;11002;48.256;10.084;2022-08-24T12:09:27;1.30;;;1.20;;
21681;SDS011;11002;48.256;10.084;2022-08-24T12:12:02;1.20;;;1.10;;
21681;SDS011;11002;48.256;10.084;2022-08-24T12:14:39;1.27;;;1.17;;
21681;SDS011;11002;48.256;10.084;2022-08-24T12:17:13;1.33;;;1.17;;
21681;SDS011;11002;48.256;10.084;2022-08-24T12:19:48;1.00;;;1.00;;
21681;SDS011;11002;48.256;10.084;2022-08-24T12:22:20;1.42;;;1.33;;
21681;SDS011;11002;48.256;10.084;2022-08-24T12:24:51;1.10;;;1.08;;
21681;SDS011;11002;48.256;10.084;2022-08-24T12:27:23;0.95;;;0.95;;
21681;SDS011;11002;48.256;10.084;2022-08-24T12:29:56;1.30;;;1.20;;
21681;SDS011;11002;48.256;10.084;2022-08-24T12:32:29;1.30;;;1.20;;
21681;SDS011;11002;48.256;10.084;2022-08-24T12:35:03;1.23;;;1.10;;
21681;SDS011;11002;48.256;10.084;2022-08-24T12:37:32;1.25;;;1.15;;
21681;SDS011;11002;48.256;10.084;2022-08-24T12:40:07;1.08;;;1.00;;
21681;SDS011;11002;48.256;10.084;2022-08-24T12:42:46;1.42;;;1.30;;
21681;SDS011;11002;48.256;10.084;2022-08-24T12:45:17;1.10;;;1.00;;
21681;SDS011;11002;48.256;10.084;2022-08-24T12:47:47;1.10;;;1.00;;
21681;SDS011;11002;48.256;10.084;2022-08-24T12:50:21;1.00;;;1.00;;
21681;SDS011;11002;48.256;10.084;2022-08-24T12:56:06;0.85;;;0.85;;
21681;SDS011;11002;48.256;10.084;2022-08-24T12:58:59;1.17;;;1.08;;
21681;SDS011;11002;48.256;10.084;2022-08-24T13:01:31;1.13;;;1.08;;
21681;SDS011;11002;48.256;10.084;2022-08-24T13:04:03;1.13;;;1.00;;
21681;SDS011;11002;48.256;10.084;2022-08-24T13:06:36;1.27;;;1.00;;
21681;SDS011;11002;48.256;10.084;2022-08-24T13:09:15;0.98;;;0.95;;
21681;SDS011;11002;48.256;10.084;2022-08-24T13:11:54;1.05;;;1.05;;
21681;SDS011;11002;48.256;10.084;2022-08-24T13:14:23;1.02;;;1.02;;
21681;SDS011;11002;48.256;10.084;2022-08-24T13:17:10;0.90;;;0.90;;
21681;SDS011;11002;48.256;10.084;2022-08-24T13:19:41;0.98;;;0.98;;
21681;SDS011;11002;48.256;10.084;2022-08-24T13:25:18;0.90;;;0.90;;
21681;SDS011;11002;48.256;10.084;2022-08-24T13:30:58;1.95;;;1.10;;
21681;SDS011;11002;48.256;10.084;2022-08-24T13:33:33;1.17;;;1.08;;
21681;SDS011;11002;48.256;10.084;2022-08-24T13:36:07;0.88;;;0.88;;
21681;SDS011;11002;48.256;10.084;2022-08-24T13:39:18;1.10;;;1.00;;
21681;SDS011;11002;48.256;10.084;2022-08-24T13:42:11;1.10;;;1.00;;
21681;SDS011;11002;48.256;10.084;2022-08-24T13:45:03;1.00;;;1.00;;
21681;SDS011;11002;48.256;10.084;2022-08-24T13:47:47;1.00;;;1.00;;
21681;SDS011;11002;48.256;10.084;2022-08-24T13:50:33;1.00;;;1.00;;
21681;SDS011;11002;48.256;10.084;2022-08-24T13:59:12;1.15;;;1.05;;
21681;SDS011;11002;48.256;10.084;2022-08-24T14:01:56;0.95;;;0.95;;
21681;SDS011;11002;48.256;10.084;2022-08-24T14:04:38;1.23;;;1.13;;
21681;SDS011;11002;48.256;10.084;2022-08-24T14:07:17;0.80;;;0.80;;
21681;SDS011;11002;48.256;10.084;2022-08-24T14:09:58;1.02;;;1.00;;
21681;SDS011;11002;48.256;10.084;2022-08-24T14:12:44;1.30;;;1.20;;
21681;SDS011;11002;48.256;10.084;2022-08-24T14:15:23;1.10;;;1.10;;
21681;SDS011;11002;48.256;10.084;2022-08-24T14:18:04;1.10;;;1.00;;
21681;SDS011;11002;48.256;10.084;2022-08-24T14:21:00;1.10;;;1.00;;
21681;SDS011;11002;48.256;10.084;2022-08-24T14:23:51;1.00;;;0.82;;
21681;SDS011;11002;48.256;10.084;2022-08-24T14:29:27;1.10;;;1.00;;
21681;SDS011;11002;48.256;10.084;2022-08-24T14:34:54;1.25;;;1.15;;
21681;SDS011;11002;48.256;10.084;2022-08-24T14:37:32;0.82;;;0.82;;
21681;SDS011;11002;48.256;10.084;2022-08-24T14:40:11;1.10;;;1.10;;
21681;SDS011;11002;48.256;10.084;2022-08-24T14:42:51;1.50;;;1.02;;
21681;SDS011;11002;48.256;10.084;2022-08-24T14:45:25;1.00;;;1.00;;
21681;SDS011;11002;48.256;10.084;2022-08-24T14:48:18;1.05;;;1.00;;
21681;SDS011;11002;48.256;10.084;2022-08-24T14:50:53;1.20;;;1.10;;
21681;SDS011;11002;48.256;10.084;2022-08-24T14:53:35;1.00;;;1.00;;
21681;SDS011;11002;48.256;10.084;2022-08-24T14:56:27;1.00;;;1.00;;
21681;SDS011;11002;48.256;10.084;2022-08-24T14:59:10;0.90;;;0.90;;
21681;SDS011;11002;48.256;10.084;2022-08-24T15:01:48;0.90;;;0.90;;
21681;SDS011;11002;48.256;10.084;2022-08-24T15:04:26;0.93;;;0.93;;
21681;SDS011;11002;48.256;10.084;2022-08-24T15:07:14;0.88;;;0.88;;
21681;SDS011;11002;48.256;10.084;2022-08-24T15:09:51;1.20;;;1.13;;
21681;SDS011;11002;48.256;10.084;2022-08-24T15:12:25;1.00;;;1.00;;
21681;SDS011;11002;48.256;10.084;2022-08-24T15:15:07;1.05;;;1.05;;
21681;SDS011;11002;48.256;10.084;2022-08-24T15:17:41;1.30;;;1.20;;
21681;SDS011;11002;48.256;10.084;2022-08-24T15:20:16;1.40;;;1.30;;
21681;SDS011;11002;48.256;10.084;2022-08-24T15:22:48;1.17;;;1.17;;
21681;SDS011;11002;48.256;10.084;2022-08-24T15:25:30;1.05;;;1.02;;
21681;SDS011;11002;48.256;10.084;2022-08-24T15:28:05;1.10;;;1.10;;
21681;SDS011;11002;48.256;10.084;2022-08-24T15:33:06;1.38;;;1.27;;
21681;SDS011;11002;48.256;10.084;2022-08-24T15:35:36;0.90;;;0.90;;
21681;SDS011;11002;48.256;10.084;2022-08-24T15:38:16;1.35;;;1.25;;
21681;SDS011;11002;48.256;10.084;2022-08-24T15:40:48;1.00;;;1.00;;
21681;SDS011;11002;48.256;10.084;2022-08-24T15:43:18;1.00;;;1.00;;
21681;SDS011;11002;48.256;10.084;2022-08-24T15:45:47;1.23;;;1.13;;
21681;SDS011;11002;48.256;10.084;2022-08-24T15:48:18;1.10;;;1.00;;
21681;SDS011;11002;48.256;10.084;2022-08-24T15:50:50;1.20;;;1.10;;
21681;SDS011;11002;48.256;10.084;2022-08-24T15:53:28;1.10;;;1.00;;
21681;SDS011;11002;48.256;10.084;2022-08-24T15:59:07;0.88;;;0.88;;
21681;SDS011;11002;48.256;10.084;2022-08-24T16:01:36;1.00;;;1.00;;
21681;SDS011;11002;48.256;10.084;2022-08-24T16:04:38;1.33;;;1.00;;
21681;SDS011;11002;48.256;10.084;2022-08-24T16:07:11;1.08;;;1.00;;
21681;SDS011;11002;48.256;10.084;2022-08-24T16:09:41;1.13;;;1.08;;
21681;SDS011;11002;48.256;10.084;2022-08-24T16:12:12;1.30;;;1.20;;
21681;SDS011;11002;48.256;10.084;2022-08-24T16:14:47;0.90;;;0.90;;
21681;SDS011;11002;48.256;10.084;2022-08-24T16:17:21;1.10;;;1.00;;
21681;SDS011;11002;48.256;10.084;2022-08-24T16:19:55;1.30;;;1.20;;
21681;SDS011;11002;48.256;10.084;2022-08-24T16:22:25;1.08;;;1.08;;